createdAt,value
2019-03-30T00:01:10.212Z,63.45
2019-03-30T00:04:14.657Z,63.36
2019-03-30T00:07:19.425Z,63.77
2019-03-30T00:10:24.155Z,63.25
2019-03-30T00:13:28.596Z,63.87
2019-03-30T00:16:33.033Z,64.63
2019-03-30T00:19:37.738Z,64.99
2019-03-30T00:22:42.167Z,65.00
2019-03-30T00:25:46.610Z,65.08
2019-03-30T00:28:51.052Z,64.92
2019-03-30T00:31:55.487Z,64.40
2019-03-30T00:34:59.928Z,64.94
2019-03-30T00:38:04.368Z,64.89
2019-03-30T00:41:08.820Z,65.07
2019-03-30T00:44:13.257Z,65.45
2019-03-30T00:47:17.696Z,64.78
2019-03-30T00:50:22.137Z,65.69
2019-03-30T00:53:26.579Z,65.17
2019-03-30T00:56:31.013Z,66.16
2019-03-30T00:59:35.748Z,66.15
2019-03-30T01:02:40.184Z,66.91
2019-03-30T01:05:44.905Z,66.91
2019-03-30T01:08:49.348Z,67.14
2019-03-30T01:11:53.786Z,66.39
2019-03-30T01:14:58.229Z,66.90
2019-03-30T01:18:03.004Z,66.69
2019-03-30T01:21:07.737Z,67.64
2019-03-30T01:24:12.470Z,66.82
2019-03-30T01:27:16.903Z,66.34
2019-03-30T01:30:23.181Z,66.86
2019-03-30T01:33:27.788Z,66.86
2019-03-30T01:36:32.225Z,66.95
2019-03-30T01:39:36.662Z,67.14
2019-03-30T01:42:41.093Z,66.88
2019-03-30T01:45:45.542Z,66.66
2019-03-30T01:48:49.982Z,67.06
2019-03-30T01:51:54.742Z,65.82
2019-03-30T01:54:59.467Z,66.56
2019-03-30T01:58:03.901Z,66.75
2019-03-30T02:01:08.347Z,66.79
2019-03-30T02:04:12.802Z,66.30
2019-03-30T02:07:17.237Z,66.95
2019-03-30T02:10:40.543Z,67.47
2019-03-30T02:13:44.980Z,66.29
2019-03-30T02:16:49.420Z,67.92
2019-03-30T02:19:53.873Z,66.87
2019-03-30T02:22:58.631Z,67.58
2019-03-30T02:26:03.139Z,67.28
2019-03-30T02:29:07.655Z,67.77
2019-03-30T02:32:12.087Z,67.57
2019-03-30T02:35:16.855Z,68.26
2019-03-30T02:38:21.278Z,69.69
2019-03-30T02:41:25.728Z,67.15
2019-03-30T02:44:30.166Z,67.17
2019-03-30T02:47:34.947Z,67.90
2019-03-30T02:50:49.502Z,68.05
2019-03-30T02:53:46.251Z,68.18
2019-03-30T02:56:50.691Z,68.80
2019-03-30T02:59:55.142Z,68.94
2019-03-30T03:02:59.593Z,68.81
2019-03-30T03:06:04.367Z,69.97
2019-03-30T03:09:09.744Z,70.16
2019-03-30T03:12:14.435Z,70.30
2019-03-30T03:15:18.936Z,69.96
2019-03-30T03:18:23.373Z,67.78
2019-03-30T03:21:27.812Z,68.63
2019-03-30T03:24:32.256Z,69.08
2019-03-30T03:27:36.704Z,69.45
2019-03-30T03:30:41.494Z,70.05
2019-03-30T03:33:45.943Z,70.48
2019-03-30T03:36:50.401Z,70.15
2019-03-30T03:39:55.168Z,70.07
2019-03-30T03:42:59.600Z,69.15
2019-03-30T03:46:04.524Z,69.22
2019-03-30T03:49:08.959Z,70.12
2019-03-30T03:52:13.547Z,70.08
2019-03-30T03:55:17.995Z,70.31
2019-03-30T03:58:26.176Z,69.43
2019-03-30T04:01:35.134Z,69.66
2019-03-30T04:04:40.486Z,69.73
2019-03-30T04:07:46.957Z,70.49
2019-03-30T04:10:52.140Z,70.42
2019-03-30T04:14:00.352Z,70.63
2019-03-30T04:17:04.805Z,71.01
2019-03-30T04:20:09.782Z,71.04
2019-03-30T04:23:14.209Z,70.58
2019-03-30T04:26:18.648Z,70.03
2019-03-30T04:29:23.358Z,70.28
2019-03-30T04:32:28.077Z,70.77
2019-03-30T04:35:32.822Z,71.17
2019-03-30T04:38:37.539Z,70.07
2019-03-30T04:41:42.272Z,70.33
2019-03-30T04:44:46.707Z,70.06
2019-03-30T04:47:51.437Z,70.33
2019-03-30T04:50:56.160Z,70.29
2019-03-30T04:54:00.892Z,70.07
2019-03-30T04:57:05.615Z,71.01
2019-03-30T05:00:10.208Z,70.41
2019-03-30T05:03:14.981Z,70.25
2019-03-30T05:06:19.711Z,69.51
2019-03-30T05:09:24.439Z,70.34
2019-03-30T05:12:28.888Z,70.13
2019-03-30T05:15:33.591Z,70.58
2019-03-30T05:18:38.329Z,70.68
2019-03-30T05:21:43.055Z,70.22
2019-03-30T05:24:47.789Z,71.79
2019-03-30T05:27:52.230Z,71.72
2019-03-30T05:30:56.935Z,71.36
2019-03-30T05:34:01.379Z,71.81
2019-03-30T05:37:05.824Z,71.73
2019-03-30T05:40:10.694Z,70.97
2019-03-30T05:43:15.451Z,70.98
2019-03-30T05:46:20.192Z,70.54
2019-03-30T05:49:24.922Z,71.32
2019-03-30T05:52:29.434Z,72.15
2019-03-30T05:55:34.177Z,72.46
2019-03-30T05:58:38.933Z,72.15
2019-03-30T06:01:44.054Z,72.23
2019-03-30T06:04:48.788Z,72.09
2019-03-30T06:07:53.237Z,72.08
2019-03-30T06:10:57.673Z,71.83
2019-03-30T06:14:02.127Z,71.75
2019-03-30T06:17:06.571Z,71.55
2019-03-30T06:20:11.609Z,70.62
2019-03-30T06:23:16.338Z,69.13
2019-03-30T06:26:20.784Z,66.06
2019-03-30T06:29:25.493Z,62.88
2019-03-30T06:32:29.951Z,59.98
2019-03-30T06:35:34.412Z,54.96
2019-03-30T06:38:38.868Z,51.63
2019-03-30T06:41:43.325Z,48.01
2019-03-30T06:44:47.770Z,43.98
2019-03-30T06:47:52.547Z,44.12
2019-03-30T06:50:57.284Z,43.48
2019-03-30T06:54:02.005Z,43.91
2019-03-30T06:57:06.741Z,44.93
2019-03-30T07:00:12.093Z,44.36
2019-03-30T07:03:16.994Z,46.05
2019-03-30T07:06:22.371Z,46.94
2019-03-30T07:09:29.898Z,46.77
2019-03-30T07:12:40.574Z,45.31
2019-03-30T07:15:49.751Z,44.13
2019-03-30T07:18:54.548Z,45.61
2019-03-30T07:21:58.989Z,45.32
2019-03-30T07:25:03.857Z,46.72
2019-03-30T07:28:08.313Z,46.76
2019-03-30T07:31:13.131Z,49.54
2019-03-30T07:34:17.850Z,51.79
2019-03-30T07:37:22.308Z,53.38
2019-03-30T07:40:26.758Z,56.04
2019-03-30T07:43:31.209Z,56.28
2019-03-30T07:46:35.950Z,56.33
2019-03-30T07:49:40.683Z,57.46
2019-03-30T07:52:45.123Z,57.75
2019-03-30T07:55:50.243Z,58.64
2019-03-30T07:58:55.183Z,58.09
2019-03-30T08:02:00.422Z,57.38
2019-03-30T08:05:07.245Z,57.52
2019-03-30T08:08:11.690Z,57.91
2019-03-30T08:11:16.482Z,58.06
2019-03-30T08:14:21.295Z,56.37
2019-03-30T08:17:25.781Z,56.86
2019-03-30T08:20:30.240Z,55.77
2019-03-30T08:23:40.581Z,55.88
2019-03-30T08:26:41.137Z,55.21
2019-03-30T08:29:45.866Z,56.82
2019-03-30T08:32:50.310Z,54.90
2019-03-30T08:35:54.770Z,53.42
2019-03-30T08:38:59.218Z,53.18
2019-03-30T08:42:03.970Z,51.79
2019-03-30T08:45:10.031Z,51.42
2019-03-30T08:48:14.480Z,50.48
2019-03-30T08:51:20.823Z,49.37
2019-03-30T08:54:25.454Z,50.90
2019-03-30T08:57:29.966Z,49.90
2019-03-30T09:00:40.307Z,48.18
2019-03-30T09:03:44.748Z,48.36
2019-03-30T09:06:49.198Z,48.82
2019-03-30T09:09:53.920Z,47.47
2019-03-30T09:12:58.362Z,46.42
2019-03-30T09:16:02.835Z,45.77
2019-03-30T09:19:07.260Z,43.89
2019-03-30T09:22:12.024Z,43.59
2019-03-30T09:25:16.754Z,42.95
2019-03-30T09:28:21.615Z,42.26
2019-03-30T09:31:26.064Z,43.36
2019-03-30T09:34:30.846Z,42.42
2019-03-30T09:37:35.580Z,40.19
2019-03-30T09:40:40.033Z,40.46
2019-03-30T09:43:44.733Z,41.00
2019-03-30T09:46:49.462Z,39.56
2019-03-30T09:49:54.198Z,39.40
2019-03-30T09:52:58.648Z,38.32
2019-03-30T09:56:03.344Z,37.39
2019-03-30T09:59:07.792Z,38.13
2019-03-30T10:02:12.235Z,38.56
2019-03-30T10:05:17.024Z,37.23
2019-03-30T10:08:21.760Z,37.79
2019-03-30T10:11:26.518Z,38.16
2019-03-30T10:14:30.934Z,38.47
2019-03-30T10:17:35.641Z,38.96
2019-03-30T10:20:40.371Z,37.57
2019-03-30T10:23:44.826Z,36.22
2019-03-30T10:26:49.279Z,34.58
2019-03-30T10:29:54.054Z,34.87
2019-03-30T10:32:58.516Z,35.94
2019-03-30T10:36:03.309Z,34.78
2019-03-30T10:39:08.696Z,35.22
2019-03-30T10:42:13.504Z,33.76
2019-03-30T10:45:17.941Z,33.67
2019-03-30T10:48:22.391Z,30.78
2019-03-30T10:51:27.167Z,33.92
2019-03-30T10:54:31.893Z,33.51
2019-03-30T10:57:36.632Z,33.76
2019-03-30T11:00:41.877Z,33.01
2019-03-30T11:03:46.315Z,35.97
2019-03-30T11:06:51.025Z,34.45
2019-03-30T11:09:55.757Z,32.19
2019-03-30T11:13:00.206Z,31.83
2019-03-30T11:16:04.910Z,30.50
2019-03-30T11:19:09.647Z,30.19
2019-03-30T11:22:14.475Z,30.68
2019-03-30T11:25:18.911Z,29.70
2019-03-30T11:28:23.370Z,29.01
2019-03-30T11:31:28.152Z,29.97
2019-03-30T11:34:32.886Z,30.54
2019-03-30T11:37:37.345Z,29.50
2019-03-30T11:40:41.794Z,29.91
2019-03-30T11:43:46.250Z,29.36
2019-03-30T11:46:50.987Z,30.05
2019-03-30T11:49:55.724Z,29.38
2019-03-30T11:53:00.562Z,25.78
2019-03-30T11:56:05.385Z,26.97
2019-03-30T11:59:09.835Z,25.15
2019-03-30T12:02:27.223Z,26.77
2019-03-30T12:05:20.726Z,26.48
2019-03-30T12:08:25.179Z,25.89
2019-03-30T12:11:29.624Z,26.61
2019-03-30T12:14:34.117Z,26.31
2019-03-30T12:17:40.991Z,26.81
2019-03-30T12:20:44.744Z,26.05
2019-03-30T12:23:49.532Z,24.43
2019-03-30T12:26:55.520Z,25.03
2019-03-30T12:30:00.461Z,24.28
2019-03-30T12:33:05.232Z,22.98
2019-03-30T12:36:09.683Z,24.79
2019-03-30T12:39:14.378Z,25.57
2019-03-30T12:42:18.829Z,25.13
2019-03-30T12:45:23.290Z,25.26
2019-03-30T12:48:28.066Z,26.40
2019-03-30T12:51:32.539Z,24.28
2019-03-30T12:54:37.048Z,24.38
2019-03-30T12:57:41.963Z,24.61
2019-03-30T13:00:46.681Z,26.71
2019-03-30T13:03:51.147Z,25.83
2019-03-30T13:06:55.846Z,24.46
2019-03-30T13:10:00.421Z,24.67
2019-03-30T13:13:05.184Z,25.40
2019-03-30T13:16:09.630Z,23.47
2019-03-30T13:19:14.342Z,23.36
2019-03-30T13:22:19.191Z,25.31
2019-03-30T13:25:23.649Z,26.07
2019-03-30T13:28:28.108Z,24.92
2019-03-30T13:31:32.554Z,25.29
2019-03-30T13:34:37.317Z,26.58
2019-03-30T13:37:41.744Z,25.95
2019-03-30T13:40:46.538Z,25.82
2019-03-30T13:43:50.993Z,25.22
2019-03-30T13:46:55.691Z,24.18
2019-03-30T13:50:00.141Z,24.04
2019-03-30T13:53:04.592Z,24.32
2019-03-30T13:56:16.973Z,23.60
2019-03-30T13:59:15.547Z,22.50
2019-03-30T14:02:19.993Z,22.05
2019-03-30T14:05:24.694Z,24.20
2019-03-30T14:08:29.427Z,24.10
2019-03-30T14:11:34.150Z,22.03
2019-03-30T14:14:38.592Z,24.73
2019-03-30T14:17:43.036Z,23.36
2019-03-30T14:20:47.491Z,23.63
2019-03-30T14:23:51.955Z,23.07
2019-03-30T14:26:56.684Z,22.57
2019-03-30T14:30:01.414Z,21.12
2019-03-30T14:33:05.850Z,21.70
2019-03-30T14:36:10.373Z,24.47
2019-03-30T14:39:15.085Z,22.77
2019-03-30T14:42:19.523Z,23.04
2019-03-30T14:45:23.978Z,23.29
2019-03-30T14:48:28.665Z,23.74
2019-03-30T14:51:33.399Z,23.57
2019-03-30T14:54:51.791Z,23.32
2019-03-30T14:57:44.292Z,23.04
2019-03-30T15:00:48.832Z,24.43
2019-03-30T15:03:53.275Z,22.60
2019-03-30T15:06:57.731Z,23.05
2019-03-30T15:10:02.186Z,24.79
2019-03-30T15:13:06.921Z,24.05
2019-03-30T15:16:11.371Z,24.18
2019-03-30T15:19:16.193Z,24.01
2019-03-30T15:22:20.910Z,23.30
2019-03-30T15:25:25.643Z,24.08
2019-03-30T15:28:30.170Z,23.89
2019-03-30T15:31:34.634Z,23.72
2019-03-30T15:34:39.431Z,24.03
2019-03-30T15:37:43.873Z,24.32
2019-03-30T15:40:48.310Z,23.96
2019-03-30T15:43:52.750Z,24.40
2019-03-30T15:46:57.735Z,23.92
2019-03-30T15:50:02.212Z,26.23
2019-03-30T15:53:06.651Z,25.31
2019-03-30T15:56:11.107Z,25.21
2019-03-30T15:59:15.835Z,25.97
2019-03-30T16:02:20.280Z,27.02
2019-03-30T16:05:24.739Z,25.55
2019-03-30T16:08:29.179Z,28.32
2019-03-30T16:11:33.630Z,26.76
2019-03-30T16:14:38.069Z,28.52
2019-03-30T16:17:42.536Z,26.92
2019-03-30T16:20:46.997Z,27.50
2019-03-30T16:23:51.739Z,28.21
2019-03-30T16:26:56.195Z,28.64
2019-03-30T16:30:00.956Z,28.49
2019-03-30T16:33:05.536Z,26.46
2019-03-30T16:36:10.266Z,28.15
2019-03-30T16:39:14.706Z,29.66
2019-03-30T16:42:19.423Z,32.21
2019-03-30T16:45:23.867Z,33.89
2019-03-30T16:48:28.576Z,32.10
2019-03-30T16:51:33.030Z,32.28
2019-03-30T16:54:37.478Z,33.58
2019-03-30T16:57:44.167Z,30.28
2019-03-30T17:00:56.217Z,32.35
2019-03-30T17:03:54.270Z,35.26
2019-03-30T17:06:58.786Z,37.33
2019-03-30T17:10:05.335Z,38.34
2019-03-30T17:13:10.109Z,39.83
2019-03-30T17:16:14.841Z,38.97
2019-03-30T17:19:19.569Z,36.85
2019-03-30T17:22:24.300Z,38.79
2019-03-30T17:25:28.816Z,39.19
2019-03-30T17:28:33.557Z,40.16
2019-03-30T17:31:38.062Z,40.47
2019-03-30T17:34:42.512Z,40.65
2019-03-30T17:37:46.955Z,41.04
2019-03-30T17:40:51.403Z,41.07
2019-03-30T17:43:56.185Z,41.38
2019-03-30T17:47:00.629Z,41.79
2019-03-30T17:50:09.578Z,42.01
2019-03-30T17:53:14.029Z,42.36
2019-03-30T17:56:18.798Z,42.33
2019-03-30T17:59:23.833Z,42.57
2019-03-30T18:02:28.480Z,43.01
2019-03-30T18:05:33.605Z,42.89
2019-03-30T18:08:38.433Z,43.28
2019-03-30T18:11:42.874Z,43.68
2019-03-30T18:14:47.400Z,43.52
2019-03-30T18:17:51.854Z,43.69
2019-03-30T18:20:56.387Z,43.56
2019-03-30T18:24:00.817Z,43.10
2019-03-30T18:27:05.591Z,43.69
2019-03-30T18:30:10.742Z,43.84
2019-03-30T18:33:15.195Z,43.82
2019-03-30T18:36:20.305Z,43.87
2019-03-30T18:39:25.230Z,44.32
2019-03-30T18:42:30.500Z,44.76
2019-03-30T18:45:34.949Z,44.77
2019-03-30T18:48:39.402Z,45.24
2019-03-30T18:51:45.320Z,45.33
2019-03-30T18:54:51.495Z,45.75
2019-03-30T18:57:56.118Z,45.72
2019-03-30T19:01:00.561Z,45.70
2019-03-30T19:04:05.678Z,45.95
2019-03-30T19:07:10.365Z,46.62
2019-03-30T19:10:15.127Z,47.24
2019-03-30T19:13:19.652Z,47.51
2019-03-30T19:16:24.356Z,48.08
2019-03-30T19:19:29.081Z,48.30
2019-03-30T19:22:33.524Z,47.96
2019-03-30T19:25:38.238Z,48.50
2019-03-30T19:28:55.638Z,48.65
2019-03-30T19:32:08.693Z,49.17
2019-03-30T19:35:13.762Z,48.57
2019-03-30T19:38:18.250Z,48.48
2019-03-30T19:41:22.994Z,48.71
2019-03-30T19:44:27.444Z,49.33
2019-03-30T19:47:32.144Z,49.43
2019-03-30T19:50:36.881Z,49.70
2019-03-30T19:53:41.603Z,49.44
2019-03-30T19:56:46.339Z,49.36
2019-03-30T19:59:51.061Z,47.97
2019-03-30T20:02:55.515Z,50.24
2019-03-30T20:05:59.983Z,49.87
2019-03-30T20:09:08.329Z,50.43
2019-03-30T20:12:13.162Z,51.53
2019-03-30T20:15:17.661Z,51.91
2019-03-30T20:18:22.106Z,52.98
2019-03-30T20:21:26.558Z,53.22
2019-03-30T20:24:31.011Z,53.26
2019-03-30T20:27:35.699Z,53.96
2019-03-30T20:30:40.631Z,53.37
2019-03-30T20:33:45.119Z,52.76
2019-03-30T20:36:49.588Z,53.22
2019-03-30T20:39:54.343Z,53.28
2019-03-30T20:42:59.035Z,53.51
2019-03-30T20:46:03.780Z,53.39
2019-03-30T20:49:08.511Z,53.12
2019-03-30T20:52:12.967Z,53.45
2019-03-30T20:55:17.780Z,53.28
2019-03-30T20:58:22.231Z,52.98
2019-03-30T21:01:27.015Z,54.29
2019-03-30T21:04:31.746Z,54.37
2019-03-30T21:07:36.470Z,54.93
2019-03-30T21:10:41.217Z,54.97
2019-03-30T21:13:45.651Z,54.88
2019-03-30T21:16:50.370Z,55.14
2019-03-30T21:19:54.807Z,55.01
2019-03-30T21:22:59.512Z,55.20
2019-03-30T21:26:04.447Z,55.65
2019-03-30T21:29:09.179Z,55.64
2019-03-30T21:32:13.907Z,55.56
2019-03-30T21:35:18.648Z,56.21
2019-03-30T21:38:23.375Z,56.07
2019-03-30T21:41:27.820Z,55.44
2019-03-30T21:44:32.266Z,56.15
2019-03-30T21:47:36.996Z,56.04
2019-03-30T21:50:41.448Z,55.96
2019-03-30T21:53:46.433Z,56.72
2019-03-30T21:56:51.183Z,55.96
2019-03-30T22:00:09.069Z,56.29
2019-03-30T22:03:02.355Z,56.20
2019-03-30T22:06:07.197Z,56.06
2019-03-30T22:09:12.104Z,56.77
2019-03-30T22:12:16.557Z,56.54
2019-03-30T22:15:27.431Z,56.57
2019-03-30T22:18:32.169Z,56.83
2019-03-30T22:21:36.626Z,56.74
2019-03-30T22:24:41.066Z,56.92
2019-03-30T22:27:45.838Z,57.29
2019-03-30T22:30:50.295Z,57.15
2019-03-30T22:33:54.739Z,57.46
2019-03-30T22:36:59.511Z,57.63
2019-03-30T22:40:05.074Z,57.45
2019-03-30T22:43:09.800Z,57.48
2019-03-30T22:46:14.522Z,57.55
2019-03-30T22:49:18.956Z,57.67
2019-03-30T22:52:23.697Z,57.82
2019-03-30T22:55:28.972Z,57.86
2019-03-30T22:58:33.754Z,58.11
2019-03-30T23:01:38.365Z,58.16
2019-03-30T23:04:43.110Z,57.95
2019-03-30T23:07:47.556Z,58.46
2019-03-30T23:10:52.263Z,58.71
2019-03-30T23:13:56.707Z,58.39
2019-03-30T23:17:01.225Z,58.75
2019-03-30T23:20:07.499Z,58.63
2019-03-30T23:23:11.935Z,57.64
2019-03-30T23:26:16.391Z,57.71
2019-03-30T23:29:20.895Z,57.56
2019-03-30T23:32:25.688Z,57.71
2019-03-30T23:35:30.127Z,58.27
2019-03-30T23:38:34.573Z,58.78
2019-03-30T23:41:39.472Z,58.70
2019-03-30T23:44:43.906Z,57.83
2019-03-30T23:47:48.632Z,57.97
2019-03-30T23:50:53.354Z,59.17
2019-03-30T23:53:58.092Z,59.82
2019-03-30T23:57:02.818Z,59.59
